sensor_id;sensor_type;location;lat;lon;timestamp;pressure;altitude;pressure_sealevel;temperature;humidity
74163;BME280;62515;52.758;5.076;2023-07-22T00:01:56;101452.34;;;13.45;100.00
74163;BME280;62515;52.758;5.076;2023-07-22T00:04:23;101451.72;;;13.41;100.00
74163;BME280;62515;52.758;5.076;2023-07-22T00:06:49;101450.59;;;13.33;100.00
74163;BME280;62515;52.758;5.076;2023-07-22T00:09:16;101456.88;;;13.32;100.00
74163;BME280;62515;52.758;5.076;2023-07-22T00:11:43;101453.47;;;13.30;100.00
74163;BME280;62515;52.758;5.076;2023-07-22T00:14:11;101450.91;;;13.28;100.00
74163;BME280;62515;52.758;5.076;2023-07-22T00:16:37;101441.44;;;13.12;100.00
74163;BME280;62515;52.758;5.076;2023-07-22T00:19:04;101451.19;;;13.13;100.00
74163;BME280;62515;52.758;5.076;2023-07-22T00:21:31;101439.84;;;12.96;100.00
74163;BME280;62515;52.758;5.076;2023-07-22T00:23:57;101455.53;;;13.01;100.00
74163;BME280;62515;52.758;5.076;2023-07-22T00:26:24;101437.09;;;12.85;100.00
74163;BME280;62515;52.758;5.076;2023-07-22T00:28:51;101447.75;;;12.98;100.00
74163;BME280;62515;52.758;5.076;2023-07-22T00:31:19;101441.75;;;12.94;100.00
74163;BME280;62515;52.758;5.076;2023-07-22T00:33:46;101444.22;;;12.97;100.00
74163;BME280;62515;52.758;5.076;2023-07-22T00:36:13;101436.13;;;12.86;100.00
74163;BME280;62515;52.758;5.076;2023-07-22T00:38:40;101451.41;;;12.84;100.00
74163;BME280;62515;52.758;5.076;2023-07-22T00:41:06;101440.94;;;12.81;100.00
74163;BME280;62515;52.758;5.076;2023-07-22T00:43:33;101433.72;;;12.71;100.00
74163;BME280;62515;52.758;5.076;2023-07-22T00:46:00;101447.16;;;12.69;100.00
74163;BME280;62515;52.758;5.076;2023-07-22T00:48:28;101442.88;;;12.67;100.00
74163;BME280;62515;52.758;5.076;2023-07-22T00:50:55;101441.38;;;12.63;100.00
74163;BME280;62515;52.758;5.076;2023-07-22T00:53:22;101429.78;;;12.51;100.00
74163;BME280;62515;52.758;5.076;2023-07-22T00:55:49;101430.44;;;12.42;100.00
74163;BME280;62515;52.758;5.076;2023-07-22T00:58:16;101430.81;;;12.36;100.00
74163;BME280;62515;52.758;5.076;2023-07-22T01:00:42;101432.97;;;12.31;100.00
74163;BME280;62515;52.758;5.076;2023-07-22T01:03:09;101429.88;;;12.24;100.00
74163;BME280;62515;52.758;5.076;2023-07-22T01:05:38;101422.72;;;12.25;100.00
74163;BME280;62515;52.758;5.076;2023-07-22T01:08:06;101423.69;;;12.24;100.00
74163;BME280;62515;52.758;5.076;2023-07-22T01:10:32;101420.06;;;12.25;100.00
74163;BME280;62515;52.758;5.076;2023-07-22T01:12:59;101431.16;;;12.31;100.00
74163;BME280;62515;52.758;5.076;2023-07-22T01:15:27;101426.13;;;12.39;100.00
74163;BME280;62515;52.758;5.076;2023-07-22T01:17:55;101413.66;;;12.40;100.00
74163;BME280;62515;52.758;5.076;2023-07-22T01:20:22;101427.97;;;12.51;100.00
74163;BME280;62515;52.758;5.076;2023-07-22T01:22:53;101419.59;;;12.56;100.00
74163;BME280;62515;52.758;5.076;2023-07-22T01:25:20;101393.56;;;12.47;100.00
74163;BME280;62515;52.758;5.076;2023-07-22T01:27:47;101417.78;;;12.69;100.00
74163;BME280;62515;52.758;5.076;2023-07-22T01:30:14;101413.59;;;12.65;100.00
74163;BME280;62515;52.758;5.076;2023-07-22T01:32:41;101415.78;;;12.60;100.00
74163;BME280;62515;52.758;5.076;2023-07-22T01:35:10;101401.25;;;12.39;100.00
74163;BME280;62515;52.758;5.076;2023-07-22T01:37:37;101408.53;;;12.37;100.00
74163;BME280;62515;52.758;5.076;2023-07-22T01:40:06;101413.56;;;12.29;100.00
74163;BME280;62515;52.758;5.076;2023-07-22T01:42:33;101408.81;;;12.20;100.00
74163;BME280;62515;52.758;5.076;2023-07-22T01:45:00;101411.41;;;12.21;100.00
74163;BME280;62515;52.758;5.076;2023-07-22T01:47:26;101402.31;;;12.24;100.00
74163;BME280;62515;52.758;5.076;2023-07-22T01:49:53;101402.97;;;12.27;100.00
74163;BME280;62515;52.758;5.076;2023-07-22T01:52:20;101404.25;;;12.22;100.00
74163;BME280;62515;52.758;5.076;2023-07-22T01:54:47;101398.06;;;12.21;100.00
74163;BME280;62515;52.758;5.076;2023-07-22T01:57:15;101395.28;;;12.23;100.00
74163;BME280;62515;52.758;5.076;2023-07-22T01:59:41;101390.59;;;12.14;100.00
74163;BME280;62515;52.758;5.076;2023-07-22T02:02:08;101394.19;;;12.00;100.00
74163;BME280;62515;52.758;5.076;2023-07-22T02:04:35;101395.69;;;11.91;100.00
74163;BME280;62515;52.758;5.076;2023-07-22T02:07:02;101368.75;;;11.69;100.00
74163;BME280;62515;52.758;5.076;2023-07-22T02:09:29;101389.69;;;11.75;100.00
74163;BME280;62515;52.758;5.076;2023-07-22T02:11:55;101383.72;;;11.72;100.00
74163;BME280;62515;52.758;5.076;2023-07-22T02:14:24;101386.50;;;11.70;100.00
74163;BME280;62515;52.758;5.076;2023-07-22T02:16:50;101388.56;;;11.65;100.00
74163;BME280;62515;52.758;5.076;2023-07-22T02:19:17;101387.06;;;11.61;100.00
74163;BME280;62515;52.758;5.076;2023-07-22T02:21:44;101366.91;;;11.57;100.00
74163;BME280;62515;52.758;5.076;2023-07-22T02:24:10;101375.56;;;11.61;100.00
74163;BME280;62515;52.758;5.076;2023-07-22T02:26:37;101387.41;;;11.69;100.00
74163;BME280;62515;52.758;5.076;2023-07-22T02:29:04;101386.69;;;11.67;100.00
74163;BME280;62515;52.758;5.076;2023-07-22T02:31:32;101377.03;;;11.65;100.00
74163;BME280;62515;52.758;5.076;2023-07-22T02:33:59;101385.59;;;11.70;100.00
74163;BME280;62515;52.758;5.076;2023-07-22T02:36:26;101373.16;;;11.70;100.00
74163;BME280;62515;52.758;5.076;2023-07-22T02:38:53;101373.69;;;11.75;100.00
74163;BME280;62515;52.758;5.076;2023-07-22T02:41:19;101383.19;;;11.79;100.00
74163;BME280;62515;52.758;5.076;2023-07-22T02:43:46;101367.03;;;11.68;100.00
74163;BME280;62515;52.758;5.076;2023-07-22T02:46:13;101368.16;;;11.78;100.00
74163;BME280;62515;52.758;5.076;2023-07-22T02:48:41;101381.72;;;11.88;100.00
74163;BME280;62515;52.758;5.076;2023-07-22T02:51:09;101377.97;;;11.90;100.00
74163;BME280;62515;52.758;5.076;2023-07-22T02:53:36;101376.72;;;11.96;100.00
74163;BME280;62515;52.758;5.076;2023-07-22T02:56:03;101365.72;;;12.00;100.00
74163;BME280;62515;52.758;5.076;2023-07-22T02:58:30;101374.34;;;12.04;100.00
74163;BME280;62515;52.758;5.076;2023-07-22T03:00:57;101383.31;;;12.03;100.00
74163;BME280;62515;52.758;5.076;2023-07-22T03:03:24;101376.72;;;12.09;100.00
74163;BME280;62515;52.758;5.076;2023-07-22T03:05:52;101388.69;;;12.16;100.00
74163;BME280;62515;52.758;5.076;2023-07-22T03:08:19;101391.88;;;12.21;100.00
74163;BME280;62515;52.758;5.076;2023-07-22T03:10:45;101392.94;;;12.31;100.00
74163;BME280;62515;52.758;5.076;2023-07-22T03:13:12;101372.03;;;12.25;100.00
74163;BME280;62515;52.758;5.076;2023-07-22T03:15:39;101386.72;;;12.43;100.00
74163;BME280;62515;52.758;5.076;2023-07-22T03:18:06;101394.22;;;12.38;100.00
74163;BME280;62515;52.758;5.076;2023-07-22T03:20:33;101401.66;;;12.45;100.00
74163;BME280;62515;52.758;5.076;2023-07-22T03:23:01;101410.97;;;12.52;100.00
74163;BME280;62515;52.758;5.076;2023-07-22T03:25:27;101392.06;;;12.55;100.00
74163;BME280;62515;52.758;5.076;2023-07-22T03:27:55;101379.91;;;12.51;100.00
74163;BME280;62515;52.758;5.076;2023-07-22T03:30:22;101399.63;;;12.62;100.00
74163;BME280;62515;52.758;5.076;2023-07-22T03:32:49;101390.78;;;12.61;100.00
74163;BME280;62515;52.758;5.076;2023-07-22T03:35:16;101387.13;;;12.62;100.00
74163;BME280;62515;52.758;5.076;2023-07-22T03:37:44;101370.38;;;12.60;100.00
74163;BME280;62515;52.758;5.076;2023-07-22T03:40:12;101397.38;;;12.68;100.00
74163;BME280;62515;52.758;5.076;2023-07-22T03:42:39;101381.34;;;12.68;100.00
74163;BME280;62515;52.758;5.076;2023-07-22T03:45:07;101381.34;;;12.68;100.00
74163;BME280;62515;52.758;5.076;2023-07-22T03:47:34;101386.09;;;12.65;100.00
74163;BME280;62515;52.758;5.076;2023-07-22T03:50:01;101382.00;;;12.59;100.00
74163;BME280;62515;52.758;5.076;2023-07-22T03:52:28;101380.31;;;12.58;100.00
74163;BME280;62515;52.758;5.076;2023-07-22T03:54:54;101385.34;;;12.50;100.00
74163;BME280;62515;52.758;5.076;2023-07-22T03:57:26;101381.16;;;12.46;100.00
74163;BME280;62515;52.758;5.076;2023-07-22T03:59:53;101382.88;;;12.47;100.00
74163;BME280;62515;52.758;5.076;2023-07-22T04:02:21;101369.03;;;12.42;100.00
74163;BME280;62515;52.758;5.076;2023-07-22T04:04:48;101375.41;;;12.52;100.00
74163;BME280;62515;52.758;5.076;2023-07-22T04:07:14;101375.75;;;12.47;100.00
74163;BME280;62515;52.758;5.076;2023-07-22T04:09:41;101394.75;;;12.43;100.00
74163;BME280;62515;52.758;5.076;2023-07-22T04:12:08;101379.88;;;12.39;100.00
74163;BME280;62515;52.758;5.076;2023-07-22T04:14:37;101387.38;;;12.34;100.00
74163;BME280;62515;52.758;5.076;2023-07-22T04:17:05;101385.88;;;12.30;100.00
74163;BME280;62515;52.758;5.076;2023-07-22T04:19:32;101372.97;;;12.24;100.00
74163;BME280;62515;52.758;5.076;2023-07-22T04:21:59;101390.50;;;12.28;100.00
74163;BME280;62515;52.758;5.076;2023-07-22T04:24:26;101379.03;;;12.26;100.00
74163;BME280;62515;52.758;5.076;2023-07-22T04:26:52;101374.69;;;12.25;100.00
74163;BME280;62515;52.758;5.076;2023-07-22T04:29:19;101371.16;;;12.24;100.00
74163;BME280;62515;52.758;5.076;2023-07-22T04:31:47;101382.25;;;12.31;100.00
74163;BME280;62515;52.758;5.076;2023-07-22T04:34:14;101380.97;;;12.36;100.00
74163;BME280;62515;52.758;5.076;2023-07-22T04:36:41;101381.38;;;12.43;100.00
74163;BME280;62515;52.758;5.076;2023-07-22T04:39:07;101373.72;;;12.51;100.00
74163;BME280;62515;52.758;5.076;2023-07-22T04:41:34;101371.97;;;12.63;100.00
74163;BME280;62515;52.758;5.076;2023-07-22T04:44:01;101366.53;;;12.64;100.00
74163;BME280;62515;52.758;5.076;2023-07-22T04:46:27;101368.34;;;12.64;100.00
74163;BME280;62515;52.758;5.076;2023-07-22T04:48:56;101366.19;;;12.69;100.00
74163;BME280;62515;52.758;5.076;2023-07-22T04:51:23;101370.66;;;12.68;100.00
74163;BME280;62515;52.758;5.076;2023-07-22T04:53:49;101364.28;;;12.71;100.00
74163;BME280;62515;52.758;5.076;2023-07-22T04:56:16;101366.38;;;12.78;100.00
74163;BME280;62515;52.758;5.076;2023-07-22T04:58:43;101368.09;;;12.79;100.00
74163;BME280;62515;52.758;5.076;2023-07-22T05:01:09;101372.25;;;12.83;100.00
74163;BME280;62515;52.758;5.076;2023-07-22T05:03:36;101362.28;;;12.85;100.00
74163;BME280;62515;52.758;5.076;2023-07-22T05:06:04;101358.44;;;12.89;100.00
74163;BME280;62515;52.758;5.076;2023-07-22T05:08:31;101368.44;;;12.98;100.00
74163;BME280;62515;52.758;5.076;2023-07-22T05:10:58;101363.09;;;12.98;100.00
74163;BME280;62515;52.758;5.076;2023-07-22T05:13:24;101365.22;;;13.06;100.00
74163;BME280;62515;52.758;5.076;2023-07-22T05:15:51;101367.34;;;13.14;100.00
74163;BME280;62515;52.758;5.076;2023-07-22T05:18:18;101356.22;;;13.20;100.00
74163;BME280;62515;52.758;5.076;2023-07-22T05:20:45;101360.03;;;13.28;100.00
74163;BME280;62515;52.758;5.076;2023-07-22T05:23:13;101361.16;;;13.37;100.00
74163;BME280;62515;52.758;5.076;2023-07-22T05:25:39;101350.06;;;13.30;100.00
74163;BME280;62515;52.758;5.076;2023-07-22T05:28:06;101369.09;;;13.49;100.00
74163;BME280;62515;52.758;5.076;2023-07-22T05:30:33;101360.97;;;13.51;100.00
74163;BME280;62515;52.758;5.076;2023-07-22T05:33:02;101360.97;;;13.51;100.00
74163;BME280;62515;52.758;5.076;2023-07-22T05:35:29;101370.97;;;13.60;100.00
74163;BME280;62515;52.758;5.076;2023-07-22T05:37:55;101335.19;;;13.50;100.00
74163;BME280;62515;52.758;5.076;2023-07-22T05:40:23;101357.13;;;13.66;100.00
74163;BME280;62515;52.758;5.076;2023-07-22T05:42:50;101360.31;;;13.71;100.00
74163;BME280;62515;52.758;5.076;2023-07-22T05:45:17;101363.13;;;13.81;100.00
74163;BME280;62515;52.758;5.076;2023-07-22T05:47:43;101352.31;;;13.82;100.00
74163;BME280;62515;52.758;5.076;2023-07-22T05:50:10;101354.88;;;13.95;100.00
74163;BME280;62515;52.758;5.076;2023-07-22T05:52:37;101345.03;;;13.95;100.00
74163;BME280;62515;52.758;5.076;2023-07-22T05:55:04;101346.03;;;14.05;100.00
74163;BME280;62515;52.758;5.076;2023-07-22T05:57:32;101352.75;;;14.22;100.00
74163;BME280;62515;52.758;5.076;2023-07-22T05:59:59;101347.91;;;14.27;100.00
74163;BME280;62515;52.758;5.076;2023-07-22T06:02:37;101351.34;;;14.40;100.00
74163;BME280;62515;52.758;5.076;2023-07-22T06:05:04;101359.47;;;14.39;100.00
74163;BME280;62515;52.758;5.076;2023-07-22T06:07:31;101350.72;;;14.48;100.00
74163;BME280;62515;52.758;5.076;2023-07-22T06:09:58;101337.94;;;14.51;100.00
74163;BME280;62515;52.758;5.076;2023-07-22T06:12:24;101332.94;;;14.58;100.00
74163;BME280;62515;52.758;5.076;2023-07-22T06:14:54;101345.22;;;14.60;100.00
74163;BME280;62515;52.758;5.076;2023-07-22T06:17:20;101340.97;;;14.58;100.00
74163;BME280;62515;52.758;5.076;2023-07-22T06:19:47;101339.97;;;14.70;100.00
74163;BME280;62515;52.758;5.076;2023-07-22T06:22:14;101345.31;;;14.70;100.00
74163;BME280;62515;52.758;5.076;2023-07-22T06:24:41;101344.47;;;14.70;100.00
74163;BME280;62515;52.758;5.076;2023-07-22T06:27:07;101340.22;;;14.67;100.00
74163;BME280;62515;52.758;5.076;2023-07-22T06:29:34;101331.94;;;14.70;100.00
74163;BME280;62515;52.758;5.076;2023-07-22T06:32:03;101347.28;;;14.79;100.00
74163;BME280;62515;52.758;5.076;2023-07-22T06:34:30;101346.28;;;14.80;100.00
74163;BME280;62515;52.758;5.076;2023-07-22T06:36:57;101345.94;;;14.85;100.00
74163;BME280;62515;52.758;5.076;2023-07-22T06:39:23;101340.16;;;14.89;100.00
74163;BME280;62515;52.758;5.076;2023-07-22T06:41:50;101341.53;;;14.95;100.00
74163;BME280;62515;52.758;5.076;2023-07-22T06:44:17;101337.03;;;14.95;100.00
74163;BME280;62515;52.758;5.076;2023-07-22T06:46:43;101334.97;;;14.88;100.00
74163;BME280;62515;52.758;5.076;2023-07-22T06:49:11;101317.22;;;14.76;100.00
74163;BME280;62515;52.758;5.076;2023-07-22T06:51:38;101336.22;;;14.73;100.00
74163;BME280;62515;52.758;5.076;2023-07-22T06:54:05;101333.44;;;14.63;100.00
74163;BME280;62515;52.758;5.076;2023-07-22T06:56:32;101335.13;;;14.53;100.00
74163;BME280;62515;52.758;5.076;2023-07-22T06:58:59;101329.53;;;14.45;100.00
74163;BME280;62515;52.758;5.076;2023-07-22T07:01:26;101330.03;;;14.39;100.00
74163;BME280;62515;52.758;5.076;2023-07-22T07:03:52;101346.81;;;14.41;100.00
74163;BME280;62515;52.758;5.076;2023-07-22T07:06:21;101338.06;;;14.39;100.00
74163;BME280;62515;52.758;5.076;2023-07-22T07:08:47;101335.84;;;14.44;100.00
74163;BME280;62515;52.758;5.076;2023-07-22T07:11:14;101339.03;;;14.49;100.00
74163;BME280;62515;52.758;5.076;2023-07-22T07:13:41;101317.72;;;14.47;100.00
74163;BME280;62515;52.758;5.076;2023-07-22T07:16:20;101327.06;;;14.64;100.00
74163;BME280;62515;52.758;5.076;2023-07-22T07:18:47;101331.69;;;14.73;100.00
74163;BME280;62515;52.758;5.076;2023-07-22T07:21:14;101327.56;;;14.69;100.00
74163;BME280;62515;52.758;5.076;2023-07-22T07:23:42;101331.94;;;14.70;100.00
74163;BME280;62515;52.758;5.076;2023-07-22T07:26:09;101336.78;;;14.76;100.00
74163;BME280;62515;52.758;5.076;2023-07-22T07:28:36;101339.00;;;14.71;100.00
74163;BME280;62515;52.758;5.076;2023-07-22T07:31:02;101333.53;;;14.61;100.00
74163;BME280;62515;52.758;5.076;2023-07-22T07:33:29;101346.47;;;14.56;100.00
74163;BME280;62515;52.758;5.076;2023-07-22T07:35:56;101352.19;;;14.52;100.00
74163;BME280;62515;52.758;5.076;2023-07-22T07:38:22;101347.78;;;14.51;100.00
74163;BME280;62515;52.758;5.076;2023-07-22T07:40:52;101343.91;;;14.55;100.00
74163;BME280;62515;52.758;5.076;2023-07-22T07:43:19;101334.66;;;14.59;100.00
74163;BME280;62515;52.758;5.076;2023-07-22T07:45:46;101333.44;;;14.63;100.00
74163;BME280;62515;52.758;5.076;2023-07-22T07:48:13;101339.25;;;14.68;100.00
74163;BME280;62515;52.758;5.076;2023-07-22T07:50:39;101329.34;;;14.80;100.00
74163;BME280;62515;52.758;5.076;2023-07-22T07:53:06;101316.31;;;14.86;100.00
74163;BME280;62515;52.758;5.076;2023-07-22T07:55:33;101340.41;;;15.08;100.00
74163;BME280;62515;52.758;5.076;2023-07-22T07:58:01;101328.50;;;15.22;100.00
74163;BME280;62515;52.758;5.076;2023-07-22T08:00:28;101343.94;;;15.41;100.00
74163;BME280;62515;52.758;5.076;2023-07-22T08:02:55;101308.84;;;15.33;100.00
74163;BME280;62515;52.758;5.076;2023-07-22T08:05:21;101327.94;;;15.50;100.00
74163;BME280;62515;52.758;5.076;2023-07-22T08:07:48;101322.06;;;15.45;100.00
74163;BME280;62515;52.758;5.076;2023-07-22T08:10:15;101332.69;;;15.47;100.00
74163;BME280;62515;52.758;5.076;2023-07-22T08:12:42;101338.78;;;15.49;100.00
74163;BME280;62515;52.758;5.076;2023-07-22T08:15:10;101327.31;;;15.47;100.00
74163;BME280;62515;52.758;5.076;2023-07-22T08:17:37;101330.56;;;15.30;100.00
74163;BME280;62515;52.758;5.076;2023-07-22T08:20:05;101333.25;;;15.18;100.00
74163;BME280;62515;52.758;5.076;2023-07-22T08:22:32;101306.28;;;14.99;100.00
74163;BME280;62515;52.758;5.076;2023-07-22T08:24:59;101305.69;;;14.96;100.00
74163;BME280;62515;52.758;5.076;2023-07-22T08:27:26;101308.50;;;14.94;100.00
74163;BME280;62515;52.758;5.076;2023-07-22T08:29:52;101294.41;;;14.92;100.00
74163;BME280;62515;52.758;5.076;2023-07-22T08:32:20;101316.16;;;14.99;100.00
74163;BME280;62515;52.758;5.076;2023-07-22T08:34:47;101302.09;;;14.86;100.00
74163;BME280;62515;52.758;5.076;2023-07-22T08:37:14;101306.59;;;14.74;100.00
74163;BME280;62515;52.758;5.076;2023-07-22T08:39:40;101313.44;;;14.67;100.00
74163;BME280;62515;52.758;5.076;2023-07-22T08:42:07;101316.59;;;14.61;100.00
74163;BME280;62515;52.758;5.076;2023-07-22T08:44:38;101312.47;;;14.57;100.00
74163;BME280;62515;52.758;5.076;2023-07-22T08:47:04;101316.59;;;14.61;100.00
74163;BME280;62515;52.758;5.076;2023-07-22T08:49:34;101312.34;;;14.58;100.00
74163;BME280;62515;52.758;5.076;2023-07-22T08:52:01;101307.34;;;14.54;100.00
74163;BME280;62515;52.758;5.076;2023-07-22T08:54:28;101311.00;;;14.64;100.00
74163;BME280;62515;52.758;5.076;2023-07-22T08:56:56;101308.56;;;14.72;100.00
74163;BME280;62515;52.758;5.076;2023-07-22T08:59:24;101305.75;;;14.74;100.00
74163;BME280;62515;52.758;5.076;2023-07-22T09:01:51;101306.09;;;14.80;100.00
74163;BME280;62515;52.758;5.076;2023-07-22T09:04:18;101308.66;;;14.82;100.00
74163;BME280;62515;52.758;5.076;2023-07-22T09:06:46;101287.84;;;14.85;100.00
74163;BME280;62515;52.758;5.076;2023-07-22T09:09:13;101305.88;;;15.15;100.00
74163;BME280;62515;52.758;5.076;2023-07-22T09:11:41;101298.28;;;15.20;100.00
74163;BME280;62515;52.758;5.076;2023-07-22T09:14:09;101301.28;;;15.38;100.00
74163;BME280;62515;52.758;5.076;2023-07-22T09:16:43;101295.69;;;15.61;100.00
74163;BME280;62515;52.758;5.076;2023-07-22T09:19:11;101298.38;;;15.82;100.00
74163;BME280;62515;52.758;5.076;2023-07-22T09:21:38;101289.66;;;15.90;100.00
74163;BME280;62515;52.758;5.076;2023-07-22T09:24:22;101298.41;;;16.12;100.00
74163;BME280;62515;52.758;5.076;2023-07-22T09:26:49;101279.94;;;16.29;100.00
74163;BME280;62515;52.758;5.076;2023-07-22T09:29:16;101285.88;;;16.62;100.00
74163;BME280;62515;52.758;5.076;2023-07-22T09:31:50;101283.94;;;16.93;100.00
74163;BME280;62515;52.758;5.076;2023-07-22T09:34:17;101288.59;;;17.01;100.00
74163;BME280;62515;52.758;5.076;2023-07-22T09:36:51;101279.28;;;17.14;100.00
74163;BME280;62515;52.758;5.076;2023-07-22T09:39:18;101283.09;;;17.21;100.00
74163;BME280;62515;52.758;5.076;2023-07-22T09:41:47;101272.06;;;17.15;100.00
74163;BME280;62515;52.758;5.076;2023-07-22T09:44:14;101257.63;;;17.06;100.00
74163;BME280;62515;52.758;5.076;2023-07-22T09:46:40;101269.78;;;17.10;100.00
74163;BME280;62515;52.758;5.076;2023-07-22T09:49:09;101264.69;;;16.88;100.00
74163;BME280;62515;52.758;5.076;2023-07-22T09:51:38;101273.31;;;16.82;100.00
74163;BME280;62515;52.758;5.076;2023-07-22T09:54:26;101267.25;;;16.99;100.00
74163;BME280;62515;52.758;5.076;2023-07-22T09:56:55;101266.56;;;17.16;100.00
74163;BME280;62515;52.758;5.076;2023-07-22T09:59:23;101260.16;;;17.27;100.00
74163;BME280;62515;52.758;5.076;2023-07-22T10:01:50;101260.41;;;17.53;100.00
74163;BME280;62515;52.758;5.076;2023-07-22T10:04:21;101261.63;;;18.24;100.00
74163;BME280;62515;52.758;5.076;2023-07-22T10:06:51;101249.38;;;19.80;100.00
74163;BME280;62515;52.758;5.076;2023-07-22T10:09:18;101247.66;;;20.97;100.00
74163;BME280;62515;52.758;5.076;2023-07-22T10:11:46;101254.63;;;21.97;100.00
74163;BME280;62515;52.758;5.076;2023-07-22T10:14:14;101235.91;;;22.18;100.00
74163;BME280;62515;52.758;5.076;2023-07-22T10:16:42;101252.59;;;21.82;100.00
74163;BME280;62515;52.758;5.076;2023-07-22T10:19:09;101252.28;;;21.21;100.00
74163;BME280;62515;52.758;5.076;2023-07-22T10:21:37;101258.00;;;20.94;100.00
74163;BME280;62515;52.758;5.076;2023-07-22T10:24:05;101237.41;;;20.43;100.00
74163;BME280;62515;52.758;5.076;2023-07-22T10:26:34;101248.72;;;20.38;100.00
74163;BME280;62515;52.758;5.076;2023-07-22T10:29:15;101258.25;;;20.24;100.00
74163;BME280;62515;52.758;5.076;2023-07-22T10:31:41;101251.72;;;20.01;100.00
74163;BME280;62515;52.758;5.076;2023-07-22T10:34:08;101252.97;;;20.15;100.00
74163;BME280;62515;52.758;5.076;2023-07-22T10:36:35;101272.78;;;19.98;100.00
74163;BME280;62515;52.758;5.076;2023-07-22T10:39:02;101261.31;;;19.70;100.00
74163;BME280;62515;52.758;5.076;2023-07-22T10:41:32;101268.34;;;19.63;100.00
74163;BME280;62515;52.758;5.076;2023-07-22T10:43:59;101262.91;;;19.37;100.00
74163;BME280;62515;52.758;5.076;2023-07-22T10:46:33;101265.69;;;18.92;100.00
74163;BME280;62515;52.758;5.076;2023-07-22T10:49:09;101262.41;;;18.71;100.00
74163;BME280;62515;52.758;5.076;2023-07-22T10:51:36;101277.25;;;18.57;100.00
74163;BME280;62515;52.758;5.076;2023-07-22T10:54:10;101276.69;;;18.26;100.00
74163;BME280;62515;52.758;5.076;2023-07-22T10:56:37;101259.50;;;18.00;100.00
74163;BME280;62515;52.758;5.076;2023-07-22T10:59:04;101271.56;;;17.87;100.00
74163;BME280;62515;52.758;5.076;2023-07-22T11:01:33;101283.50;;;17.84;100.00
74163;BME280;62515;52.758;5.076;2023-07-22T11:04:09;101278.81;;;17.86;100.00
74163;BME280;62515;52.758;5.076;2023-07-22T11:06:36;101279.03;;;18.02;100.00
74163;BME280;62515;52.758;5.076;2023-07-22T11:09:03;101269.06;;;18.12;100.00
74163;BME280;62515;52.758;5.076;2023-07-22T11:11:37;101259.72;;;18.16;100.00
74163;BME280;62515;52.758;5.076;2023-07-22T11:14:18;101275.19;;;18.05;100.00
74163;BME280;62515;52.758;5.076;2023-07-22T11:16:48;101270.69;;;18.33;100.00
74163;BME280;62515;52.758;5.076;2023-07-22T11:19:16;101264.59;;;18.30;100.00
74163;BME280;62515;52.758;5.076;2023-07-22T11:21:43;101256.97;;;18.26;100.00
74163;BME280;62515;52.758;5.076;2023-07-22T11:24:10;101237.16;;;18.17;100.00
74163;BME280;62515;52.758;5.076;2023-07-22T11:26:38;101266.03;;;18.25;100.00
74163;BME280;62515;52.758;5.076;2023-07-22T11:29:07;101264.19;;;18.62;100.00
74163;BME280;62515;52.758;5.076;2023-07-22T11:31:36;101251.56;;;18.63;100.00
74163;BME280;62515;52.758;5.076;2023-07-22T11:34:04;101262.75;;;19.03;100.00
74163;BME280;62515;52.758;5.076;2023-07-22T11:36:31;101267.22;;;19.30;100.00
74163;BME280;62515;52.758;5.076;2023-07-22T11:39:01;101257.34;;;19.56;100.00
74163;BME280;62515;52.758;5.076;2023-07-22T11:41:29;101249.81;;;19.68;100.00
74163;BME280;62515;52.758;5.076;2023-07-22T11:43:57;101247.03;;;20.11;100.00
74163;BME280;62515;52.758;5.076;2023-07-22T11:46:24;101247.44;;;20.66;100.00
74163;BME280;62515;52.758;5.076;2023-07-22T11:48:51;101249.19;;;20.83;100.00
74163;BME280;62515;52.758;5.076;2023-07-22T11:51:21;101246.94;;;20.55;100.00
74163;BME280;62515;52.758;5.076;2023-07-22T11:53:48;101242.00;;;20.50;100.00
74163;BME280;62515;52.758;5.076;2023-07-22T11:56:20;101229.31;;;20.09;100.00
74163;BME280;62515;52.758;5.076;2023-07-22T11:58:51;101237.34;;;20.26;100.00
74163;BME280;62515;52.758;5.076;2023-07-22T12:01:18;101235.06;;;20.48;100.00
74163;BME280;62515;52.758;5.076;2023-07-22T12:03:46;101221.00;;;20.02;100.00
74163;BME280;62515;52.758;5.076;2023-07-22T12:06:14;101234.53;;;20.10;100.00
74163;BME280;62515;52.758;5.076;2023-07-22T12:08:46;101241.41;;;20.30;100.00
74163;BME280;62515;52.758;5.076;2023-07-22T12:11:17;101245.50;;;20.34;100.00
74163;BME280;62515;52.758;5.076;2023-07-22T12:13:44;101250.69;;;20.28;100.00
74163;BME280;62515;52.758;5.076;2023-07-22T12:16:11;101236.88;;;20.31;100.00
74163;BME280;62515;52.758;5.076;2023-07-22T12:18:42;101240.38;;;20.81;100.00
74163;BME280;62515;52.758;5.076;2023-07-22T12:21:09;101234.31;;;21.04;100.00
74163;BME280;62515;52.758;5.076;2023-07-22T12:23:36;101241.38;;;22.10;100.00
74163;BME280;62515;52.758;5.076;2023-07-22T12:26:05;101245.16;;;22.39;100.00
74163;BME280;62515;52.758;5.076;2023-07-22T12:28:32;101246.56;;;22.66;100.00
74163;BME280;62515;52.758;5.076;2023-07-22T12:31:00;101241.41;;;22.40;100.00
74163;BME280;62515;52.758;5.076;2023-07-22T12:33:27;101247.31;;;22.44;100.00
74163;BME280;62515;52.758;5.076;2023-07-22T12:35:54;101250.59;;;22.39;100.00
74163;BME280;62515;52.758;5.076;2023-07-22T12:38:20;101235.47;;;21.82;100.00
74163;BME280;62515;52.758;5.076;2023-07-22T12:40:47;101237.81;;;22.09;100.00
74163;BME280;62515;52.758;5.076;2023-07-22T12:43:15;101245.38;;;21.43;100.00